San Pablo, Colorado
Current Conditions -  °F | °C
As of 6:11 PM on Wednesday 22 Oct 2014 (Local Time) from KVTP Reporting Station
Broken Clouds Broken Clouds  
Wind Chill: 45°   Ceiling: 7000
Heat Index: 45°   Visibility: 10mi
Dew Point: 28°   Wind: 0mph
Humidity: 53%   Direction: NA
Pressure: 30.35"   Gusts: NA
Location:  37.15°N, 105.4°W
Report Text: KVTP 230011Z AUTO 00000KT 10SM BKN070 07/M02 A3035 RMK AO2
Loading
Personal Weather Stations






























Interactive Weather Map
Tropical Storm Tracking
New forecast layout! Learn more

10-Day Weather Forecast

Advertisements
Track Severe Weather on mobile